Terminal Aerodrome Forecast
Issued by NWS

Home | Current Version | Previous Version | Text Only | Print | Product List | Glossary On
Versions: 1 2 3 4 5 6 7 8 9 10 11 12 13
644
FTAK31 PAJN 261123
TAFAWG
TAF
PAWG 261123Z 2612/2712 VRB03KT P6SM VCFG BKN040 OVC080
     FM261600 29004KT P6SM FEW050 BKN070
     FM262300 29006KT P6SM SCT070
      AMD NOT SKED=

USA.gov is the U.S. government's official web portal to all federal, state and local government web resources and services.